Hovedside
METAR-TAF:

METAR-TAF

Lufthavner :

Villmanstrand, Finland

Villmanstrand lufthavn

breddegrad: 61-02-45N, lengdegrad: 028-08-55E, høyde over havet: 106 m

Gjeldene værobservasjon

Denne rapporten ble laget for 21 minutter siden, klokken 22:20 UTC
Vind 5 kt fra Nord, skiftende mellom Nordvest og Nordøst
Temperatur 15°C
Luftfuktighet 88%
Trykk 1011 hPa
Sikt 10 km eller mer
Brutte skyer i en høyde av 2700 ft

METAR: EFLP 242220Z AUTO 36005KT 320V040 9999 BKN027 15/13 Q1011

Tid: 01:41 (22:41 UTC)

Varsel

Denne rapporten ble laget for 14 timer og 11 minutter siden, klokken 08:30 UTC
Varsel gyldig fra 24. klokken 09 UTC til 24. klokken 13 UTC
Vind 5 kt fra Nord
Sikt 10 km eller mer
Brutte skyer i en høyde av 900 ft
Midlertidig
fra 24. klokken 09 UTC til 24. klokken 10 UTC
Sikt: 6000 m
lett duskregn, regn
Blir
fra 24. klokken 10 UTC til 24. klokken 12 UTC
Brutte skyer i en høyde av 1500 ft

TAF: EFLP 240830Z 2409/2413 36005KT 9999 BKN009 TEMPO 2409/2410 6000 -DZRA BECMG 2410/2412 BKN015

Værobservasjoner og værvarsel for over 4000 flyplasser (METAR- og TAF-rapporter).

Tilgjengelige stasjoner er representert av de røde og gule prikkene på kartet.

Hold musepekeren over prikken for å se navnet på stasjonen.

Klikk så for å se værobservasjoner og -varsler.

For å forandre kartet kan du klikke på den grønne knappen med svart kryss for å zoome inn, på den grønne knappen med strek for å zoome ut, eller på de grønne pilene for å se tilstøtende kart.


METAR-TAF: